createdAt,value
2022-10-29T00:02:10.042Z,74.45
2022-10-29T00:04:55.389Z,74.46
2022-10-29T00:07:40.738Z,74.77
2022-10-29T00:10:26.754Z,74.44
2022-10-29T00:13:12.299Z,75.29
2022-10-29T00:15:57.514Z,75.76
2022-10-29T00:18:43.242Z,75.81
2022-10-29T00:21:29.039Z,76.12
2022-10-29T00:24:14.443Z,76.49
2022-10-29T00:26:59.806Z,77.67
2022-10-29T00:29:45.155Z,77.74
2022-10-29T00:32:30.448Z,78.11
2022-10-29T00:35:16.024Z,77.59
2022-10-29T00:38:01.497Z,77.43
2022-10-29T00:40:46.822Z,77.77
2022-10-29T00:43:37.392Z,77.75
2022-10-29T00:47:04.492Z,77.99
2022-10-29T00:50:10.629Z,77.86
2022-10-29T00:52:57.035Z,77.78
2022-10-29T00:55:42.667Z,77.88
2022-10-29T00:58:29.272Z,77.65
2022-10-29T01:01:15.531Z,77.34
2022-10-29T01:04:01.826Z,77.45
2022-10-29T01:06:48.073Z,77.64
2022-10-29T01:09:33.527Z,78.16
2022-10-29T01:12:26.979Z,77.91
2022-10-29T01:15:44.800Z,78.67
2022-10-29T01:18:45.469Z,79.04
2022-10-29T01:21:42.838Z,78.76
2022-10-29T01:24:49.538Z,79.67
2022-10-29T01:27:51.623Z,79.63
2022-10-29T01:31:16.097Z,79.57
2022-10-29T01:34:18.404Z,79.97
2022-10-29T01:37:11.319Z,80.15
2022-10-29T01:40:18.075Z,80.41
2022-10-29T01:43:14.257Z,80.33
2022-10-29T01:46:19.391Z,80.25
2022-10-29T01:49:11.789Z,79.48
2022-10-29T01:52:01.753Z,80.04
2022-10-29T01:54:48.332Z,79.83
2022-10-29T01:57:36.885Z,79.28
2022-10-29T02:00:22.699Z,79.55
2022-10-29T02:03:42.526Z,78.96
2022-10-29T02:06:36.481Z,78.72
2022-10-29T02:09:50.625Z,79.27
2022-10-29T02:12:45.588Z,78.71
2022-10-29T02:15:38.799Z,78.36
2022-10-29T02:18:24.432Z,78.92
2022-10-29T02:21:09.965Z,78.70
2022-10-29T02:23:55.325Z,78.50
2022-10-29T02:26:40.781Z,78.69
2022-10-29T02:29:26.190Z,78.72
2022-10-29T02:32:11.600Z,78.52
2022-10-29T02:34:56.825Z,78.88
2022-10-29T02:37:42.308Z,78.80
2022-10-29T02:40:27.524Z,79.02
2022-10-29T02:43:13.065Z,79.91
2022-10-29T02:46:18.634Z,80.26
2022-10-29T02:49:04.434Z,80.47
2022-10-29T02:51:50.380Z,81.22
2022-10-29T02:54:36.131Z,80.56
2022-10-29T02:57:21.656Z,80.99
2022-10-29T03:00:07.676Z,79.93
2022-10-29T03:02:53.031Z,78.90
2022-10-29T03:05:38.167Z,78.72
2022-10-29T03:08:23.737Z,78.92
2022-10-29T03:11:09.678Z,78.85
2022-10-29T03:13:55.058Z,78.67
2022-10-29T03:16:40.363Z,78.68
2022-10-29T03:19:25.740Z,79.40
2022-10-29T03:22:11.303Z,78.55
2022-10-29T03:24:56.636Z,78.22
2022-10-29T03:27:43.540Z,78.50
2022-10-29T03:30:28.853Z,77.87
2022-10-29T03:33:14.674Z,77.77
2022-10-29T03:36:02.663Z,78.37
2022-10-29T03:38:47.804Z,78.13
2022-10-29T03:41:33.075Z,78.16
2022-10-29T03:44:18.585Z,77.78
2022-10-29T03:47:03.979Z,78.04
2022-10-29T03:49:49.470Z,77.41
2022-10-29T03:52:34.965Z,77.88
2022-10-29T03:55:20.315Z,77.64
2022-10-29T03:58:05.636Z,78.17
2022-10-29T04:01:05.882Z,78.16
2022-10-29T04:03:51.346Z,77.99
2022-10-29T04:06:36.646Z,77.70
2022-10-29T04:09:22.066Z,77.23
2022-10-29T04:12:08.404Z,75.96
2022-10-29T04:14:54.064Z,76.55
2022-10-29T04:17:39.537Z,76.36
2022-10-29T04:20:47.708Z,76.09
2022-10-29T04:29:41.788Z,76.44
2022-10-29T04:32:27.667Z,76.22
2022-10-29T04:35:13.467Z,76.14
2022-10-29T04:37:58.931Z,77.12
2022-10-29T04:40:44.109Z,77.50
2022-10-29T04:43:29.836Z,77.16
2022-10-29T04:46:15.112Z,76.81
2022-10-29T04:49:00.790Z,77.41
2022-10-29T04:51:46.433Z,76.98
2022-10-29T04:54:31.785Z,76.87
2022-10-29T04:57:17.221Z,76.25
2022-10-29T05:00:02.796Z,76.54
2022-10-29T05:02:49.872Z,75.99
2022-10-29T05:05:37.961Z,76.24
2022-10-29T05:08:23.559Z,76.47
2022-10-29T05:11:09.439Z,76.77
2022-10-29T05:13:54.724Z,76.29
2022-10-29T05:16:40.138Z,76.58
2022-10-29T05:19:25.748Z,76.83
2022-10-29T05:22:11.311Z,77.13
2022-10-29T05:24:57.022Z,77.59
2022-10-29T05:27:42.547Z,77.94
2022-10-29T05:30:28.262Z,78.19
2022-10-29T05:33:22.862Z,78.61
2022-10-29T05:36:08.521Z,78.29
2022-10-29T05:38:54.634Z,78.48
2022-10-29T05:41:40.184Z,78.32
2022-10-29T05:44:25.676Z,78.55
2022-10-29T05:47:11.271Z,78.13
2022-10-29T05:49:56.648Z,78.56
2022-10-29T05:52:42.176Z,78.54
2022-10-29T05:55:29.787Z,77.79
2022-10-29T05:58:15.104Z,78.07
2022-10-29T06:01:00.448Z,78.22
2022-10-29T06:03:46.472Z,77.79
2022-10-29T06:06:31.823Z,77.65
2022-10-29T06:09:17.224Z,78.34
2022-10-29T06:12:03.300Z,77.98
2022-10-29T06:14:49.266Z,77.64
2022-10-29T06:17:34.577Z,77.99
2022-10-29T06:20:21.822Z,77.71
2022-10-29T06:23:07.425Z,77.89
2022-10-29T06:25:52.990Z,77.66
2022-10-29T06:28:38.420Z,77.89
2022-10-29T06:31:24.008Z,77.81
2022-10-29T06:34:09.501Z,77.42
2022-10-29T06:36:55.879Z,77.33
2022-10-29T06:39:41.316Z,76.74
2022-10-29T06:42:26.816Z,77.27
2022-10-29T06:45:12.301Z,76.66
2022-10-29T06:47:58.566Z,76.18
2022-10-29T06:50:44.518Z,75.81
2022-10-29T06:53:29.863Z,75.60
2022-10-29T06:56:15.305Z,75.56
2022-10-29T06:59:00.922Z,75.31
2022-10-29T07:01:46.732Z,75.20
2022-10-29T07:04:32.264Z,75.03
2022-10-29T07:07:17.932Z,74.85
2022-10-29T07:10:03.672Z,75.17
2022-10-29T07:12:49.020Z,75.36
2022-10-29T07:15:34.787Z,75.72
2022-10-29T07:18:20.123Z,76.11
2022-10-29T07:21:05.834Z,76.04
2022-10-29T07:23:51.604Z,76.32
2022-10-29T07:26:37.247Z,76.57
2022-10-29T07:29:22.713Z,76.61
2022-10-29T07:32:08.181Z,77.22
2022-10-29T07:34:53.423Z,77.92
2022-10-29T07:37:39.039Z,77.70
2022-10-29T07:40:24.317Z,77.55
2022-10-29T07:43:09.686Z,77.24
2022-10-29T07:45:54.982Z,76.67
2022-10-29T07:48:40.576Z,76.64
2022-10-29T07:51:26.235Z,76.80
2022-10-29T07:54:14.738Z,76.23
2022-10-29T07:57:00.544Z,76.46
2022-10-29T07:59:47.021Z,76.79
2022-10-29T08:02:33.327Z,77.09
2022-10-29T08:05:18.768Z,77.28
2022-10-29T08:08:05.606Z,77.80
2022-10-29T08:10:51.410Z,77.51
2022-10-29T08:13:36.425Z,77.58
2022-10-29T08:16:22.599Z,77.96
2022-10-29T08:19:09.756Z,78.35
2022-10-29T08:21:56.218Z,78.44
2022-10-29T08:24:41.958Z,78.29
2022-10-29T08:27:28.000Z,78.10
2022-10-29T08:30:16.033Z,77.31
2022-10-29T08:33:02.016Z,76.86
2022-10-29T08:35:48.087Z,76.55
2022-10-29T08:38:34.520Z,76.49
2022-10-29T08:41:57.464Z,75.94
2022-10-29T08:45:03.190Z,75.41
2022-10-29T08:48:12.387Z,75.17
2022-10-29T08:51:28.748Z,75.24
2022-10-29T08:54:32.231Z,75.76
2022-10-29T08:57:26.449Z,75.08
2022-10-29T09:00:18.102Z,74.32
2022-10-29T09:03:11.024Z,74.29
2022-10-29T09:06:05.994Z,73.91
2022-10-29T09:08:52.338Z,73.79
2022-10-29T09:11:46.535Z,73.86
2022-10-29T09:14:45.808Z,73.72
2022-10-29T09:18:10.420Z,74.11
2022-10-29T09:21:17.807Z,74.43
2022-10-29T09:24:22.812Z,74.19
2022-10-29T09:27:22.896Z,75.00
2022-10-29T09:30:17.362Z,74.80
2022-10-29T09:33:14.045Z,75.45
2022-10-29T09:36:01.177Z,75.63
2022-10-29T09:38:59.082Z,76.09
2022-10-29T09:41:45.023Z,75.13
2022-10-29T09:44:43.517Z,74.53
2022-10-29T09:47:46.524Z,73.22
2022-10-29T09:50:41.828Z,72.56
2022-10-29T09:53:27.037Z,72.56
2022-10-29T09:56:12.827Z,71.55
2022-10-29T09:59:25.344Z,71.28
2022-10-29T10:02:31.077Z,71.78
2022-10-29T10:05:25.081Z,71.37
2022-10-29T10:08:14.799Z,70.47
2022-10-29T10:11:06.968Z,70.06
2022-10-29T10:13:59.732Z,69.21
2022-10-29T10:16:45.400Z,68.99
2022-10-29T10:19:32.486Z,68.75
2022-10-29T10:22:24.349Z,68.62
2022-10-29T10:25:34.164Z,68.19
2022-10-29T10:28:19.867Z,66.86
2022-10-29T10:31:13.083Z,67.51
2022-10-29T10:33:58.711Z,67.04
2022-10-29T10:36:57.019Z,67.03
2022-10-29T10:39:54.786Z,66.62
2022-10-29T10:42:47.058Z,65.52
2022-10-29T10:45:40.194Z,65.92
2022-10-29T10:48:32.643Z,66.82
2022-10-29T10:51:25.203Z,66.12
2022-10-29T10:54:44.678Z,66.00
2022-10-29T10:57:34.597Z,65.90
2022-10-29T11:00:21.931Z,66.57
2022-10-29T11:03:18.161Z,66.17
2022-10-29T11:06:10.191Z,66.50
2022-10-29T11:09:14.511Z,66.62
2022-10-29T11:12:10.677Z,65.89
2022-10-29T11:15:05.385Z,66.29
2022-10-29T11:18:03.457Z,66.69
2022-10-29T11:21:14.177Z,66.97
2022-10-29T11:24:09.106Z,66.85
2022-10-29T11:27:01.640Z,67.21
2022-10-29T11:30:04.020Z,67.76
2022-10-29T11:33:24.389Z,67.24
2022-10-29T11:36:23.580Z,66.95
2022-10-29T11:39:18.116Z,67.12
2022-10-29T11:42:04.104Z,66.52
2022-10-29T11:44:50.140Z,65.92
2022-10-29T11:47:59.691Z,66.12
2022-10-29T11:51:05.779Z,66.67
2022-10-29T11:53:54.718Z,67.03
2022-10-29T11:56:53.906Z,67.29
2022-10-29T11:59:45.754Z,67.34
2022-10-29T12:02:53.782Z,68.12
2022-10-29T12:05:39.768Z,67.74
2022-10-29T12:08:46.673Z,67.47
2022-10-29T12:11:42.998Z,67.10
2022-10-29T12:14:34.385Z,66.52
2022-10-29T12:17:39.890Z,65.74
2022-10-29T12:20:38.316Z,65.40
2022-10-29T12:23:50.769Z,65.47
2022-10-29T12:26:57.406Z,66.71
2022-10-29T12:29:53.329Z,66.77
2022-10-29T12:32:53.514Z,66.09
2022-10-29T12:36:05.161Z,66.24
2022-10-29T12:38:56.371Z,65.81
2022-10-29T12:41:48.129Z,64.08
2022-10-29T12:44:58.832Z,63.20
2022-10-29T12:48:04.785Z,62.25
2022-10-29T12:51:02.015Z,62.47
2022-10-29T12:54:21.432Z,63.23
2022-10-29T12:57:12.818Z,62.50
2022-10-29T13:00:23.985Z,62.73
2022-10-29T13:03:10.515Z,62.14
2022-10-29T13:05:56.429Z,62.06
2022-10-29T13:08:54.536Z,61.52
2022-10-29T13:11:47.758Z,61.94
2022-10-29T13:14:39.187Z,61.72
2022-10-29T13:17:36.481Z,61.85
2022-10-29T13:20:27.808Z,61.78
2022-10-29T13:23:22.449Z,61.08
2022-10-29T13:26:09.187Z,61.26
2022-10-29T13:28:54.758Z,61.13
2022-10-29T13:31:46.462Z,61.61
2022-10-29T13:35:10.701Z,61.20
2022-10-29T13:38:12.166Z,60.81
2022-10-29T13:41:03.832Z,60.55
2022-10-29T13:44:14.265Z,61.25
2022-10-29T13:47:03.522Z,60.45
2022-10-29T13:49:49.724Z,60.50
2022-10-29T13:52:37.381Z,60.92
2022-10-29T13:55:23.002Z,60.29
2022-10-29T13:58:32.125Z,60.86
2022-10-29T14:01:20.855Z,61.06
2022-10-29T14:04:25.779Z,60.94
2022-10-29T14:07:18.542Z,60.85
2022-10-29T14:10:14.976Z,60.83
2022-10-29T14:13:26.407Z,61.35
2022-10-29T14:16:13.510Z,61.09
2022-10-29T14:19:13.749Z,61.11
2022-10-29T14:21:59.473Z,61.47
2022-10-29T14:24:44.889Z,62.13
2022-10-29T14:27:30.605Z,61.60
2022-10-29T14:30:19.971Z,61.35
2022-10-29T14:33:26.120Z,61.43
2022-10-29T14:36:15.621Z,61.51
2022-10-29T14:39:01.139Z,61.75
2022-10-29T14:41:49.980Z,61.77
2022-10-29T14:44:35.464Z,61.58
2022-10-29T14:47:30.408Z,61.96
2022-10-29T14:50:25.428Z,61.56
2022-10-29T14:53:23.043Z,61.84
2022-10-29T14:56:18.678Z,61.87
2022-10-29T14:59:14.140Z,62.01
2022-10-29T15:02:17.119Z,61.96
2022-10-29T15:05:30.419Z,61.94
2022-10-29T15:08:24.071Z,62.07
2022-10-29T15:11:34.077Z,62.15
2022-10-29T15:14:31.449Z,63.11
2022-10-29T15:17:22.561Z,62.55
2022-10-29T15:20:42.006Z,62.55
2022-10-29T15:23:35.468Z,62.62
2022-10-29T15:26:23.185Z,62.65
2022-10-29T15:29:11.746Z,62.53
2022-10-29T15:31:57.901Z,62.50
2022-10-29T15:34:56.821Z,62.71
2022-10-29T15:37:47.455Z,63.05
2022-10-29T15:41:16.345Z,62.61
2022-10-29T15:44:28.258Z,63.16
2022-10-29T15:47:26.500Z,63.13
2022-10-29T15:50:36.562Z,63.46
2022-10-29T15:53:21.897Z,63.39
2022-10-29T15:56:12.329Z,63.56
2022-10-29T15:59:00.841Z,63.48
2022-10-29T16:01:46.954Z,63.71
2022-10-29T16:04:34.032Z,63.73
2022-10-29T16:07:21.540Z,63.74
2022-10-29T16:10:13.020Z,63.63
2022-10-29T16:12:59.607Z,63.62
2022-10-29T16:15:44.898Z,63.92
2022-10-29T16:18:30.324Z,64.20
2022-10-29T16:21:21.738Z,64.22
2022-10-29T16:24:13.232Z,64.15
2022-10-29T16:26:58.687Z,64.43
2022-10-29T16:29:44.367Z,64.41
2022-10-29T16:32:30.205Z,64.72
2022-10-29T16:35:24.624Z,64.43
2022-10-29T16:38:11.194Z,64.95
2022-10-29T16:40:56.446Z,64.85
2022-10-29T16:43:43.364Z,64.94
2022-10-29T16:46:28.552Z,65.29
2022-10-29T16:49:13.917Z,65.34
2022-10-29T16:51:59.222Z,65.48
2022-10-29T16:54:44.845Z,65.86
2022-10-29T16:57:30.531Z,66.26
2022-10-29T17:00:16.042Z,66.60
2022-10-29T17:03:10.963Z,66.43
2022-10-29T17:06:04.258Z,66.68
2022-10-29T17:08:50.130Z,66.96
2022-10-29T17:11:35.620Z,66.91
2022-10-29T17:14:21.096Z,66.81
2022-10-29T17:17:06.985Z,67.17
2022-10-29T17:19:53.770Z,67.06
2022-10-29T17:22:39.453Z,67.15
2022-10-29T17:25:25.225Z,67.05
2022-10-29T17:28:10.781Z,67.51
2022-10-29T17:30:56.274Z,67.07
2022-10-29T17:33:41.762Z,67.12
2022-10-29T17:36:27.027Z,67.01
2022-10-29T17:39:12.615Z,66.58
2022-10-29T17:41:58.633Z,66.69
2022-10-29T17:44:44.053Z,66.65
2022-10-29T17:47:30.028Z,66.82
2022-10-29T17:50:15.734Z,66.48
2022-10-29T17:53:01.173Z,66.36
2022-10-29T17:55:46.520Z,66.11
2022-10-29T17:58:31.854Z,66.40
2022-10-29T18:01:17.938Z,66.62
2022-10-29T18:04:05.060Z,66.88
2022-10-29T18:06:50.796Z,66.90
2022-10-29T18:09:36.511Z,66.96
2022-10-29T18:12:21.766Z,67.19
2022-10-29T18:15:08.220Z,67.43
2022-10-29T18:17:53.822Z,67.74
2022-10-29T18:20:39.207Z,67.70
2022-10-29T18:23:24.729Z,67.51
2022-10-29T18:26:29.100Z,67.30
2022-10-29T18:29:15.105Z,67.38
2022-10-29T18:32:00.740Z,67.52
2022-10-29T18:34:46.614Z,67.13
2022-10-29T18:37:32.253Z,67.48
2022-10-29T18:40:18.184Z,67.39
2022-10-29T18:43:04.160Z,67.60
2022-10-29T18:45:56.154Z,67.83
2022-10-29T18:48:47.498Z,67.77
2022-10-29T18:51:33.437Z,67.72
2022-10-29T18:54:19.898Z,68.07
2022-10-29T18:57:05.123Z,68.04
2022-10-29T18:59:50.540Z,68.21
2022-10-29T19:02:36.091Z,68.01
2022-10-29T19:05:21.632Z,68.15
2022-10-29T19:08:08.889Z,68.13
2022-10-29T19:10:55.832Z,68.28
2022-10-29T19:13:42.178Z,68.36
2022-10-29T19:16:29.033Z,68.47
2022-10-29T19:19:17.288Z,68.54
2022-10-29T19:22:05.344Z,68.68
2022-10-29T19:24:50.922Z,68.66
2022-10-29T19:27:37.560Z,68.86
2022-10-29T19:30:23.659Z,68.74
2022-10-29T19:33:09.337Z,68.77
2022-10-29T19:35:54.962Z,68.75
2022-10-29T19:38:40.512Z,69.01
2022-10-29T19:41:26.829Z,69.04
2022-10-29T19:44:12.577Z,69.03
2022-10-29T19:46:58.081Z,69.49
2022-10-29T19:49:43.551Z,69.62
2022-10-29T19:52:29.259Z,69.60
2022-10-29T19:55:14.697Z,69.76
2022-10-29T19:58:00.126Z,70.08
2022-10-29T20:00:45.973Z,70.24
2022-10-29T20:03:32.244Z,70.23
2022-10-29T20:06:18.120Z,70.22
2022-10-29T20:09:04.136Z,70.32
2022-10-29T20:11:49.829Z,70.18
2022-10-29T20:14:35.733Z,70.31
2022-10-29T20:17:21.445Z,70.65
2022-10-29T20:20:08.259Z,70.25
2022-10-29T20:22:55.133Z,70.79
2022-10-29T20:25:40.550Z,70.83
2022-10-29T20:28:25.931Z,70.83
2022-10-29T20:31:14.210Z,70.68
2022-10-29T20:34:00.878Z,70.76
2022-10-29T20:36:47.359Z,70.91
2022-10-29T20:39:33.589Z,71.13
2022-10-29T20:42:19.492Z,71.36
2022-10-29T20:45:05.658Z,71.38
2022-10-29T20:47:50.997Z,71.28
2022-10-29T20:50:36.459Z,71.46
2022-10-29T20:53:21.701Z,71.42
2022-10-29T20:56:10.337Z,71.30
2022-10-29T20:58:58.859Z,71.42
2022-10-29T21:01:44.584Z,71.27
2022-10-29T21:04:30.329Z,71.42
2022-10-29T21:07:16.055Z,71.32
2022-10-29T21:10:01.696Z,71.36
2022-10-29T21:12:47.167Z,71.42
2022-10-29T21:15:36.470Z,71.58
2022-10-29T21:18:22.609Z,71.45
2022-10-29T21:21:08.914Z,71.58
2022-10-29T21:23:54.983Z,71.73
2022-10-29T21:26:40.458Z,71.85
2022-10-29T21:29:26.087Z,71.63
2022-10-29T21:32:14.384Z,71.82
2022-10-29T21:35:02.652Z,71.78
2022-10-29T21:37:48.134Z,71.94
2022-10-29T21:40:33.756Z,71.73
2022-10-29T21:43:21.910Z,71.97
2022-10-29T21:46:08.158Z,71.88
2022-10-29T21:48:55.981Z,72.00
2022-10-29T21:51:42.503Z,71.88
2022-10-29T21:54:28.499Z,72.06
2022-10-29T21:57:14.240Z,72.27
2022-10-29T21:59:59.515Z,72.33
2022-10-29T22:02:45.094Z,72.37
2022-10-29T22:05:30.733Z,72.42
2022-10-29T22:08:16.466Z,72.52
2022-10-29T22:11:02.254Z,72.44
2022-10-29T22:13:47.750Z,72.62
2022-10-29T22:16:33.140Z,72.77
2022-10-29T22:19:18.418Z,72.52
2022-10-29T22:22:03.732Z,73.04
2022-10-29T22:24:49.471Z,72.95
2022-10-29T22:27:34.769Z,73.21
2022-10-29T22:30:20.211Z,73.47
2022-10-29T22:33:05.353Z,73.51
2022-10-29T22:35:51.051Z,73.90
2022-10-29T22:38:36.675Z,73.93
2022-10-29T22:41:23.604Z,73.64
2022-10-29T22:44:09.437Z,73.89
2022-10-29T22:46:55.033Z,73.61
2022-10-29T22:49:40.327Z,73.85
2022-10-29T22:52:26.080Z,74.02
2022-10-29T22:55:11.443Z,74.17
2022-10-29T22:57:56.908Z,74.15
2022-10-29T23:00:42.238Z,74.37
2022-10-29T23:03:27.535Z,74.48
2022-10-29T23:06:15.772Z,74.37
2022-10-29T23:09:04.134Z,74.52
2022-10-29T23:11:49.580Z,74.60
2022-10-29T23:14:35.204Z,74.66
2022-10-29T23:17:20.640Z,74.76
2022-10-29T23:20:06.789Z,74.90
2022-10-29T23:22:52.364Z,75.01
2022-10-29T23:25:40.656Z,74.95
2022-10-29T23:28:26.202Z,75.04
2022-10-29T23:31:15.289Z,75.39
2022-10-29T23:34:00.821Z,75.36
2022-10-29T23:36:46.362Z,75.17
2022-10-29T23:39:31.692Z,75.43
2022-10-29T23:42:17.214Z,75.41
2022-10-29T23:45:07.748Z,75.70
2022-10-29T23:47:53.310Z,75.71
2022-10-29T23:50:39.001Z,75.60
2022-10-29T23:53:25.314Z,76.15
2022-10-29T23:56:10.616Z,75.61
2022-10-29T23:58:56.172Z,75.89
